Adak, Alaska
Current Conditions -  °F | °C
As of 3:56 PM on Sunday 21 Dec 2014 (Local Time) from PADK Reporting Station
Overcast Overcast  
Wind Chill: 31°   Ceiling: 3400
Heat Index: 37°   Visibility: 10mi
Dew Point: 30°   Wind: 9mph
Humidity: 75%   Direction: 300°WNW
Pressure: 29.84"   Gusts: NA
Location:  51.88°N, 176.66°W
Report Text: PADK 220156Z AUTO 30008KT 10SM FEW024 BKN034 OVC050 03/M01 A2984 RMK AO1
Loading
Personal Weather Stations






























Interactive Weather Map New forecast layout! Learn more

10-Day Weather Forecast

Advertisements
Track Severe Weather on mobile